Chatfield, Ohio
Current Conditions -  °F | °C
As of 9:52 PM on Tuesday 21 Oct 2014 (Local Time) from KMFD Reporting Station
Haze Haze  
Wind Chill: 36°   Ceiling: 500
Heat Index: 43°   Visibility: 5mi
Dew Point: 42°   Wind: 13mph
Humidity: 97%   Direction: 310°NW
Pressure: 30.12"   Gusts: NA
Location:  40.95°N, 82.94°W
Report Text: KMFD 220152Z 31011KT 5SM BR OVC005 06/06 A3012 RMK AO2 SLP206 T00610056
Loading
Personal Weather Stations






























Interactive Weather Map
Tropical Storm Tracking
New forecast layout! Learn more

10-Day Weather Forecast

Advertisements
Track Severe Weather on mobile